Flight Track Log - Related Links

Times and Time Zones

All times are in EDT time to prevent confusion due to time zone crossing. See the ADR727 flight status page for this flight to view local times or setup timezone preferences in your user account.

Time Position Orientation Groundspeed Altitude Reporting Facility
EDT Latitude Longitude Course Direction KTS MPH feet Rate Location/Type
Tue 11:07:00 PM 42.3072 18.8241 324° Northwest  Level Estimated
Tue 11:08:00 PM 42.3961 18.7331 323° Northwest  Level Estimated
Tue 11:09:00 PM 42.4849 18.6418 323° Northwest  Level Estimated
Tue 11:10:00 PM 42.5736 18.5503 323° Northwest  Level Estimated
Tue 11:11:00 PM 42.6623 18.4585 323° Northwest  Level Estimated
Tue 11:12:00 PM 42.7508 18.3664 323° Northwest  Level Estimated
Tue 11:13:00 PM 42.8393 18.2740 323° Northwest  Level Estimated
Tue 11:14:00 PM 42.9277 18.1814 323° Northwest  Level Estimated
Tue 11:15:00 PM 43.0161 18.0886 322° Northwest  Level Estimated
Tue 11:16:00 PM 43.1044 17.9954 322° Northwest  Level Estimated
Tue 11:17:00 PM 43.1926 17.9021 322° Northwest  Level Estimated
Tue 11:18:00 PM 43.2807 17.8084 322° Northwest  Level Estimated
Tue 11:19:00 PM 43.3687 17.7144 322° Northwest  Level Estimated
Tue 11:20:00 PM 43.4567 17.6202 322° Northwest  Level Estimated
Tue 11:21:00 PM 43.5446 17.5257 322° Northwest  Level Estimated
Tue 11:22:00 PM 43.6324 17.4310 322° Northwest  Level Estimated
Tue 11:23:00 PM 43.7201 17.3359 322° Northwest  Level Estimated
Tue 11:24:00 PM 43.8078 17.2406 322° Northwest  Level Estimated
Tue 11:25:00 PM 43.8953 17.1450 322° Northwest  Level Estimated
Tue 11:26:00 PM 43.9828 17.0491 322° Northwest  Level Estimated
Tue 11:27:00 PM 44.0702 16.9529 322° Northwest  Level Estimated
Tue 11:28:00 PM 44.1576 16.8565 322° Northwest  Level Estimated
Tue 11:29:00 PM 44.2448 16.7597 322° Northwest  Level Estimated
Tue 11:30:00 PM 44.3320 16.6627 321° Northwest  Level Estimated
Tue 11:31:00 PM 44.4191 16.5654 321° Northwest  Level Estimated
Tue 11:32:00 PM 44.5061 16.4678 321° Northwest  Level Estimated
Tue 11:33:00 PM 44.5930 16.3699 321° Northwest  Level Estimated
Tue 11:34:00 PM 44.6798 16.2717 321° Northwest  Level Estimated
Tue 11:35:00 PM 44.7666 16.1732 321° Northwest  Level Estimated
Tue 11:36:00 PM 44.8533 16.0744 321° Northwest  Level Estimated
Tue 11:37:00 PM 44.9398 15.9753 321° Northwest  Level Estimated
Tue 11:38:00 PM 45.0263 15.8759 321° Northwest  Level Estimated
Tue 11:39:00 PM 45.1128 15.7763 321° Northwest  Level Estimated
Tue 11:40:00 PM 45.1991 15.6763 321° Northwest  Level Estimated
Tue 11:41:00 PM 45.2853 15.5760 321° Northwest  Level Estimated
Tue 11:42:00 PM 45.3714 15.4754 321° Northwest  Level Estimated
Tue 11:43:00 PM 45.4575 15.3745 321° Northwest  Level Estimated
Tue 11:44:00 PM 45.5435 15.2733 321° Northwest  Level Estimated
Tue 11:45:00 PM 45.6294 15.1718 320° Northwest  Level Estimated
Tue 11:46:00 PM 45.7151 15.0700 320° Northwest  Level Estimated
Tue 11:47:00 PM 45.8008 14.9678 320° Northwest  Level Estimated
Tue 11:48:00 PM 45.8865 14.8654 320° Northwest  Level Estimated
Tue 11:49:00 PM 45.9720 14.7626 320° Northwest  Level Estimated
Tue 11:50:00 PM 46.0574 14.6595 320° Northwest  Level Estimated
Tue 11:51:00 PM 46.1427 14.5561 320° Northwest  Level Estimated
Tue 11:52:00 PM 46.2237 14.4576 320° Northwest  Level Estimated
Tue 11:53:00 PM 46.2237 14.4576 170° South  Level Estimated
Tue 11:54:00 PM 46.2237 14.4576 170° South  Level Estimated
Tue 11:55:00 PM 46.2237 14.4576 170° South  Level Estimated
Tue 11:56:00 PM 46.2237 14.4576 170° South  Level Estimated
Tue 11:57:00 PM 46.2237 14.4576 170° South  Level Estimated
Tue 11:58:00 PM 46.2237 14.4576 170° South  Level Estimated
Tue 11:59:00 PM 46.2237 14.4576 170° South  Level Estimated
Wed 12:00:00 AM 46.2237 14.4576 170° South  Level Estimated
Wed 12:01:00 AM 46.2237 14.4576 170° South  Level Estimated
Wed 12:02:00 AM 46.2237 14.4576 170° South  Level Estimated
Wed 12:03:00 AM 46.2237 14.4576 170° South  Level Estimated
Wed 12:04:00 AM 46.2237 14.4576 170° South  Level Estimated
Wed 12:05:00 AM 46.2237 14.4576 170° South  Level Estimated
Wed 12:06:00 AM 46.2237 14.4576 170° South  Level Estimated
Wed 12:07:00 AM 46.2237 14.4576 170° South  Level Estimated
Wed 12:08:00 AM 46.2237 14.4576 170° South  Level Estimated

Login

Don't have an account? Register now (free) for customized features, flight alerts, and more!